Pittsburgh, PA (15211)

7:20 PM EDT on June 24, 2017 (GMT -0400)
Heinz Field WeatherSTEM | | Change Station
Active Advisory: Flood Advisory Active Notice: Flood Advisory

Elev 718 ft 40.45 °N, 80.02 °W | Updated 2 minutes ago

Clear
Clear
78.8 °F
Feels Like 80 °F
N
3.0
Wind Variable Wind from WSW

Today
High -- | Low -- °F
--% Chance of Precip.
Yesterday
High -- | Low -- °F
Precip. -- in
Pressure 29.92 in
Visibility 10.0 miles
Clouds Clear
Heat Index 80 °F
Dew Point 57 °F
Humidity 47%
Rainfall 0.13 in
Snow Depth Not available.
5:50 AM 8:54 PM
New Moon, 1% visible
METAR KAGC 242253Z 28010G18KT 260V320 10SM CLR 24/11 A2993 RMK AO2 SLP132 T02440111
Pressure 29.92 in
Visibility 10.0 miles
Clouds Clear
Heat Index 80 °F
Dew Point 57 °F
Humidity 47%
Rainfall 0.13 in
Snow Depth Not available.
5:50 AM 8:54 PM
New Moon, 1% visible
METAR KAGC 242253Z 28010G18KT 260V320 10SM CLR 24/11 A2993 RMK AO2 SLP132 T02440111

Get Your Daily Forecast Email!

Thanks for signing up!

Be on the lookout for a verification email in your inbox.

You'll start receiving severe weather alerts in your inbox..

×

10-Day Weather Forecast

Almanac

Astronomy

Jun. 24, 2017 Rise Set
Actual Time
Civil Twilight
Nautical Twilight
Astronomical Twilight
Moon
Length of Visible Light
Length of Day
Tomorrow will be .
, % of the Moon is Illuminated

Today's Extremes

State Highs State Lows

Community

WunderPhotos

Category 6

Welcome to Category 6. This is the collective home for Weather Underground's featured writeups by Dr. Jeff Masters (right), Bob Henson (left), Chris Burt, and other regular contributors.

Nearby

Air Quality

  Air Quality AQ Index Pollutant
Not available.

Snow Depth

Station Depth Elevation

Earthquake Activity

City Distance Mag. Time & Date
Minimum magnitude displayed is 2.5.

Coastal Water Temperatures

Place Temperature

Stations

Nearby Weather Stations

Station Location Temp. Windchill Dew Point Humidity Wind Precip. Elev Updated Type
                   

Watches & Warnings

Flood Advisory
Issued: 1:33 PM EDT Jun. 24, 2017 – National Weather Service

The flood advisory continues for
the Ohio River at Pittsburgh.
* Until Sunday afternoon.
* At 01pm Saturday the stage was 17.0 feet.
* Flood stage is 25.0 feet.
* Forecast... the river will rise to near 18.0 feet this evening.
* Impact... at 18.0 feet, water begins to flow onto the Monongahela
parking wharf.


Lat... Lon 4043 7999 4045 8005 4047 8003 4045 8001
      4046 7999 4045 7998




133 PM EDT Sat Jun 24 2017

The flood advisory continues for
the Ohio River at Pittsburgh.
* Until Sunday afternoon.
* At 01pm Saturday the stage was 17.0 feet.
* Flood stage is 25.0 feet.
* Forecast... the river will rise to near 18.0 feet this evening.
* Impact... at 18.0 feet, water begins to flow onto the Monongahela
parking wharf.


Lat... Lon 4043 7999 4045 8005 4047 8003 4045 8001
      4046 7999 4045 7998